createdAt,value
2017-12-27T00:07:54.740Z,18.90
2017-12-27T00:30:13.348Z,14.70
2017-12-27T00:32:44.356Z,16.02
2017-12-27T00:37:59.232Z,16.23
2017-12-27T00:40:28.384Z,15.27
2017-12-27T00:43:00.771Z,13.77
2017-12-27T00:45:31.992Z,15.50
2017-12-27T00:48:03.123Z,16.40
2017-12-27T00:50:34.287Z,15.00
2017-12-27T00:53:05.151Z,14.32
2017-12-27T00:55:43.217Z,14.80
2017-12-27T00:58:15.143Z,15.85
2017-12-27T01:00:45.592Z,15.60
2017-12-27T01:03:15.625Z,15.70
2017-12-27T01:05:50.940Z,15.90
2017-12-27T01:08:21.352Z,14.95
2017-12-27T01:10:53.139Z,15.90
2017-12-27T01:13:22.958Z,15.93
2017-12-27T01:15:52.489Z,16.58
2017-12-27T01:18:24.415Z,17.85
2017-12-27T01:20:53.396Z,17.98
2017-12-27T01:23:22.980Z,17.35
2017-12-27T01:25:58.282Z,18.52
2017-12-27T01:28:29.220Z,16.30
2017-12-27T01:31:03.449Z,16.75
2017-12-27T01:33:36.063Z,17.75
2017-12-27T01:36:06.820Z,17.55
2017-12-27T01:38:35.415Z,16.75
2017-12-27T01:41:03.126Z,17.23
2017-12-27T01:43:31.586Z,18.90
2017-12-27T01:45:59.344Z,17.33
2017-12-27T01:48:27.036Z,16.35
2017-12-27T01:50:54.789Z,16.83
2017-12-27T01:53:23.301Z,17.55
2017-12-27T01:55:50.995Z,17.37
2017-12-27T01:58:18.686Z,17.90
2017-12-27T02:00:47.217Z,18.55
2017-12-27T02:03:14.924Z,17.52
2017-12-27T02:05:43.380Z,19.80
2017-12-27T02:08:11.136Z,18.55
2017-12-27T02:10:38.877Z,19.65
2017-12-27T02:13:06.585Z,18.95
2017-12-27T02:15:35.108Z,20.45
2017-12-27T02:18:02.846Z,18.23
2017-12-27T02:20:30.544Z,19.90
2017-12-27T02:22:58.319Z,18.55
2017-12-27T02:25:26.011Z,16.25
2017-12-27T02:27:53.710Z,17.98
2017-12-27T02:30:21.485Z,17.45
2017-12-27T02:32:49.194Z,19.80
2017-12-27T02:35:16.904Z,17.08
2017-12-27T02:37:44.652Z,18.27
2017-12-27T02:40:27.246Z,17.67
2017-12-27T02:42:55.025Z,18.55
2017-12-27T02:45:22.734Z,18.70
2017-12-27T02:47:50.488Z,19.52
2017-12-27T02:50:18.249Z,17.70
2017-12-27T02:52:45.976Z,22.00
2017-12-27T02:55:13.669Z,19.42
2017-12-27T02:57:41.414Z,18.02
2017-12-27T03:00:09.124Z,19.02
2017-12-27T03:02:36.826Z,19.35
2017-12-27T03:05:04.579Z,18.00
2017-12-27T03:07:32.278Z,20.83
2017-12-27T03:10:00.737Z,20.65
2017-12-27T03:12:28.536Z,22.05
2017-12-27T03:14:56.990Z,20.00
2017-12-27T03:17:24.693Z,21.12
2017-12-27T03:19:52.443Z,18.92
2017-12-27T03:22:20.145Z,18.33
2017-12-27T03:24:47.846Z,18.58
2017-12-27T03:27:16.358Z,20.75
2017-12-27T03:29:44.050Z,18.67
2017-12-27T03:32:11.754Z,20.23
2017-12-27T03:34:39.506Z,20.88
2017-12-27T03:37:07.961Z,19.80
2017-12-27T03:39:35.658Z,19.58
2017-12-27T03:42:03.427Z,17.73
2017-12-27T03:44:31.153Z,18.98
2017-12-27T03:46:58.845Z,21.08
2017-12-27T03:49:26.602Z,22.30
2017-12-27T03:51:55.080Z,20.12
2017-12-27T03:54:23.562Z,20.60
2017-12-27T03:56:51.321Z,19.85
2017-12-27T03:59:19.018Z,17.48
2017-12-27T04:01:46.715Z,17.20
2017-12-27T04:04:14.456Z,19.20
2017-12-27T04:06:42.158Z,18.92
2017-12-27T04:09:10.629Z,18.30
2017-12-27T04:11:39.160Z,17.23
2017-12-27T04:14:06.880Z,15.80
2017-12-27T04:16:35.369Z,18.27
2017-12-27T04:19:03.120Z,16.20
2017-12-27T04:21:30.818Z,15.43
2017-12-27T04:23:58.507Z,16.30
2017-12-27T04:26:26.261Z,18.15
2017-12-27T04:28:53.977Z,18.08
2017-12-27T04:31:21.681Z,19.25
2017-12-27T04:33:49.445Z,18.95
2017-12-27T04:36:17.161Z,19.70
2017-12-27T04:38:44.852Z,17.75
2017-12-27T04:41:12.589Z,18.67
2017-12-27T04:43:40.284Z,15.43
2017-12-27T04:46:07.972Z,20.15
2017-12-27T04:48:36.485Z,17.50
2017-12-27T04:51:04.186Z,18.83
2017-12-27T04:53:31.889Z,16.75
2017-12-27T04:55:59.663Z,21.12
2017-12-27T04:58:27.376Z,18.60
2017-12-27T05:00:55.073Z,21.10
2017-12-27T05:03:22.816Z,20.48
2017-12-27T05:05:51.287Z,20.83
2017-12-27T05:08:18.985Z,20.55
2017-12-27T05:10:46.737Z,23.23
2017-12-27T05:13:14.438Z,23.15
2017-12-27T05:15:42.136Z,28.75
2017-12-27T05:18:10.656Z,28.87
2017-12-27T05:20:38.365Z,23.30
2017-12-27T05:23:06.082Z,24.10
2017-12-27T05:25:34.596Z,21.25
2017-12-27T05:28:02.296Z,24.55
2017-12-27T05:30:29.996Z,22.52
2017-12-27T05:32:57.794Z,22.55
2017-12-27T05:35:25.484Z,28.83
2017-12-27T05:37:53.180Z,24.30
2017-12-27T05:40:20.929Z,21.40
2017-12-27T05:42:48.617Z,23.38
2017-12-27T05:45:16.316Z,19.70
2017-12-27T05:47:44.083Z,20.62
2017-12-27T05:50:11.784Z,21.33
2017-12-27T05:52:39.517Z,19.12
2017-12-27T05:55:07.281Z,24.30
2017-12-27T05:57:35.018Z,22.87
2017-12-27T06:00:03.503Z,25.70
2017-12-27T06:02:31.311Z,22.55
2017-12-27T06:04:59.006Z,26.17
2017-12-27T06:07:27.463Z,25.17
2017-12-27T06:09:55.211Z,25.85
2017-12-27T06:12:22.904Z,27.55
2017-12-27T06:14:51.365Z,25.62
2017-12-27T06:17:19.117Z,26.40
2017-12-27T06:19:46.812Z,27.42
2017-12-27T06:22:15.302Z,27.45
2017-12-27T06:24:43.049Z,27.92
2017-12-27T06:27:11.527Z,27.10
2017-12-27T06:29:39.993Z,28.40
2017-12-27T06:32:07.772Z,30.83
2017-12-27T06:34:36.244Z,29.90
2017-12-27T06:37:04.708Z,31.80
2017-12-27T06:39:32.455Z,32.38
2017-12-27T06:42:00.156Z,32.22
2017-12-27T06:44:28.612Z,30.42
2017-12-27T06:46:56.363Z,32.28
2017-12-27T06:49:24.064Z,34.55
2017-12-27T06:51:51.761Z,30.55
2017-12-27T06:54:19.511Z,30.73
2017-12-27T06:56:47.232Z,29.17
2017-12-27T06:59:15.708Z,30.83
2017-12-27T07:01:44.221Z,31.37
2017-12-27T07:04:11.920Z,29.25
2017-12-27T07:06:39.630Z,30.23
2017-12-27T07:09:07.395Z,27.98
2017-12-27T07:11:35.099Z,29.17
2017-12-27T07:14:02.788Z,29.67
2017-12-27T07:16:31.305Z,30.65
2017-12-27T07:18:58.994Z,28.27
2017-12-27T07:21:26.683Z,31.77
2017-12-27T07:23:55.192Z,29.10
2017-12-27T07:26:22.877Z,30.75
2017-12-27T07:28:50.581Z,30.52
2017-12-27T07:31:19.095Z,27.65
2017-12-27T07:33:46.796Z,27.60
2017-12-27T07:36:14.547Z,28.67
2017-12-27T07:38:42.333Z,26.83
2017-12-27T07:41:10.060Z,30.35
2017-12-27T07:43:37.765Z,28.35
2017-12-27T07:46:06.285Z,24.52
2017-12-27T07:48:36.348Z,24.92
2017-12-27T07:51:06.586Z,26.52
2017-12-27T07:53:36.660Z,27.85
2017-12-27T07:56:06.412Z,28.00
2017-12-27T08:01:26.369Z,27.40
2017-12-27T08:06:48.415Z,27.73
2017-12-27T08:09:29.481Z,28.35
2017-12-27T08:12:08.026Z,33.30
2017-12-27T08:14:36.819Z,29.42
2017-12-27T08:17:05.978Z,27.30
2017-12-27T08:19:37.810Z,29.00
2017-12-27T08:22:08.623Z,29.15
2017-12-27T08:24:39.923Z,30.62
2017-12-27T08:27:22.118Z,31.55
2017-12-27T08:32:29.441Z,35.78
2017-12-27T08:34:57.458Z,35.45
2017-12-27T08:37:25.219Z,29.87
2017-12-27T08:39:53.926Z,35.25
2017-12-27T08:42:21.730Z,29.52
2017-12-27T08:44:49.497Z,24.73
2017-12-27T08:47:17.244Z,27.42
2017-12-27T08:49:45.797Z,26.05
2017-12-27T08:52:13.622Z,31.48
2017-12-27T08:54:41.370Z,36.25
2017-12-27T08:57:09.180Z,28.60
2017-12-27T08:59:40.110Z,30.90
2017-12-27T09:02:07.964Z,22.67
2017-12-27T09:04:40.422Z,23.80
2017-12-27T09:07:08.851Z,26.00
2017-12-27T09:09:37.424Z,26.37
2017-12-27T09:12:05.171Z,22.42
2017-12-27T09:14:32.986Z,21.12
2017-12-27T09:17:03.037Z,19.10
2017-12-27T09:19:30.851Z,18.33
2017-12-27T09:21:59.492Z,16.40
2017-12-27T09:24:29.492Z,18.98
2017-12-27T09:26:57.684Z,19.55
2017-12-27T09:29:26.243Z,16.05
2017-12-27T09:31:54.412Z,17.60
2017-12-27T09:34:22.284Z,16.77
2017-12-27T09:36:50.940Z,16.48
2017-12-27T09:39:18.827Z,20.00
2017-12-27T09:41:46.594Z,16.60
2017-12-27T09:44:15.464Z,17.08
2017-12-27T09:46:44.142Z,20.65
2017-12-27T09:49:12.754Z,23.42
2017-12-27T09:51:42.373Z,22.60
2017-12-27T09:54:14.900Z,19.85
2017-12-27T09:56:46.794Z,21.10
2017-12-27T09:59:16.715Z,21.67
2017-12-27T10:01:45.626Z,23.12
2017-12-27T10:04:13.548Z,24.58
2017-12-27T10:06:43.291Z,22.92
2017-12-27T10:09:12.429Z,25.15
2017-12-27T10:11:40.516Z,22.87
2017-12-27T10:14:08.283Z,22.75
2017-12-27T10:16:36.037Z,24.42
2017-12-27T10:19:03.773Z,22.15
2017-12-27T10:21:32.193Z,23.87
2017-12-27T10:24:00.000Z,24.20
2017-12-27T10:26:27.761Z,25.50
2017-12-27T10:28:55.559Z,28.80
2017-12-27T10:31:23.318Z,26.50
2017-12-27T10:33:51.061Z,27.33
2017-12-27T10:36:18.854Z,22.75
2017-12-27T10:38:46.690Z,22.60
2017-12-27T10:41:14.401Z,22.83
2017-12-27T10:43:43.042Z,26.65
2017-12-27T10:46:12.817Z,25.20
2017-12-27T10:48:43.309Z,26.40
2017-12-27T10:51:13.194Z,24.55
2017-12-27T10:53:43.076Z,23.40
2017-12-27T10:56:11.157Z,22.00
2017-12-27T10:58:40.292Z,22.25
2017-12-27T11:01:11.888Z,26.05
2017-12-27T11:03:44.614Z,22.17
2017-12-27T11:06:15.986Z,25.45
2017-12-27T11:08:44.531Z,25.05
2017-12-27T11:11:16.766Z,21.10
2017-12-27T11:13:49.793Z,25.70
2017-12-27T11:16:18.276Z,25.08
2017-12-27T11:18:49.841Z,21.67
2017-12-27T11:21:18.921Z,22.45
2017-12-27T11:23:48.304Z,22.00
2017-12-27T11:26:18.105Z,21.10
2017-12-27T11:28:47.369Z,25.33
2017-12-27T11:31:16.323Z,25.25
2017-12-27T11:33:44.222Z,26.05
2017-12-27T11:36:13.491Z,21.73
2017-12-27T11:38:42.462Z,25.08
2017-12-27T11:41:12.022Z,26.70
2017-12-27T11:43:39.985Z,24.20
2017-12-27T11:46:07.860Z,21.87
2017-12-27T11:48:36.774Z,26.10
2017-12-27T11:51:05.547Z,25.52
2017-12-27T11:53:33.392Z,26.35
2017-12-27T11:56:02.331Z,27.80
2017-12-27T11:58:31.928Z,27.58
2017-12-27T12:01:02.280Z,25.98
2017-12-27T12:03:34.136Z,29.17
2017-12-27T12:06:04.851Z,25.62
2017-12-27T12:08:35.557Z,25.37
2017-12-27T12:11:04.578Z,27.13
2017-12-27T12:13:33.927Z,28.17
2017-12-27T12:18:36.646Z,27.73
2017-12-27T12:21:08.582Z,30.48
2017-12-27T12:23:40.366Z,28.02
2017-12-27T12:26:09.495Z,29.23
2017-12-27T12:28:43.222Z,31.08
2017-12-27T12:31:12.383Z,35.78
2017-12-27T12:33:42.085Z,37.25
2017-12-27T12:36:12.799Z,40.30
2017-12-27T12:38:41.459Z,31.48
2017-12-27T12:41:11.149Z,34.15
2017-12-27T12:43:40.405Z,32.45
2017-12-27T12:46:10.501Z,30.35
2017-12-27T12:48:40.208Z,31.15
2017-12-27T12:51:08.217Z,34.00
2017-12-27T12:53:38.895Z,35.22
2017-12-27T12:56:06.880Z,34.92
2017-12-27T12:58:39.184Z,35.17
2017-12-27T13:01:07.831Z,33.13
2017-12-27T13:03:35.657Z,37.25
2017-12-27T13:06:06.119Z,36.65
2017-12-27T13:08:34.836Z,39.53
2017-12-27T13:11:03.553Z,38.88
2017-12-27T13:13:35.109Z,38.85
2017-12-27T13:16:03.613Z,33.85
2017-12-27T13:18:33.168Z,38.42
2017-12-27T13:21:01.582Z,38.33
2017-12-27T13:23:31.078Z,37.38
2017-12-27T13:25:58.875Z,45.28
2017-12-27T13:28:27.859Z,41.80
2017-12-27T13:30:57.329Z,40.70
2017-12-27T13:33:25.202Z,35.70
2017-12-27T13:35:54.195Z,37.42
2017-12-27T13:38:22.109Z,39.38
2017-12-27T13:40:51.662Z,35.60
2017-12-27T13:43:19.511Z,36.97
2017-12-27T13:45:47.484Z,36.70
2017-12-27T13:48:15.374Z,35.92
2017-12-27T13:50:43.247Z,33.05
2017-12-27T13:53:11.350Z,34.20
2017-12-27T13:55:39.266Z,33.25
2017-12-27T13:58:09.374Z,33.75
2017-12-27T14:00:37.551Z,35.33
2017-12-27T14:03:06.308Z,32.95
2017-12-27T14:05:36.318Z,35.20
2017-12-27T14:08:07.765Z,37.05
2017-12-27T14:10:37.271Z,38.42
2017-12-27T14:13:07.063Z,38.53
2017-12-27T14:15:36.582Z,41.45
2017-12-27T14:18:04.973Z,39.63
2017-12-27T14:20:33.728Z,40.42
2017-12-27T14:23:02.599Z,40.25
2017-12-27T14:25:31.121Z,42.47
2017-12-27T14:27:59.652Z,42.70
2017-12-27T14:30:27.893Z,43.28
2017-12-27T14:32:55.784Z,46.90
2017-12-27T14:35:23.849Z,45.88
2017-12-27T14:37:53.163Z,45.88
2017-12-27T14:40:25.914Z,47.80
2017-12-27T14:42:54.070Z,46.72
2017-12-27T14:45:21.913Z,44.40
2017-12-27T14:47:50.592Z,51.22
2017-12-27T14:50:18.384Z,52.03
2017-12-27T14:52:46.114Z,47.05
2017-12-27T14:55:13.921Z,52.22
2017-12-27T14:57:41.739Z,50.97
2017-12-27T15:00:09.531Z,51.10
2017-12-27T15:02:37.327Z,51.37
2017-12-27T15:05:05.809Z,56.90
2017-12-27T15:07:34.358Z,51.03
2017-12-27T15:10:02.324Z,53.70
2017-12-27T15:12:30.842Z,57.47
2017-12-27T15:14:59.338Z,53.33
2017-12-27T15:17:27.138Z,56.13
2017-12-27T15:19:54.936Z,57.78
2017-12-27T15:22:23.485Z,60.47
2017-12-27T15:24:51.349Z,53.78
2017-12-27T15:27:19.174Z,55.95
2017-12-27T15:29:46.923Z,54.90
2017-12-27T15:32:14.712Z,52.85
2017-12-27T15:34:42.991Z,52.53
2017-12-27T15:37:10.799Z,52.92
2017-12-27T15:39:38.655Z,56.28
2017-12-27T15:42:07.422Z,57.22
2017-12-27T15:44:36.033Z,58.80
2017-12-27T15:47:03.832Z,57.53
2017-12-27T15:49:31.805Z,60.95
2017-12-27T15:52:00.688Z,62.13
2017-12-27T15:54:28.640Z,58.03
2017-12-27T15:56:57.778Z,59.50
2017-12-27T15:59:26.441Z,59.97
2017-12-27T16:01:59.643Z,61.28
2017-12-27T16:04:27.560Z,55.20
2017-12-27T16:06:57.512Z,59.55
2017-12-27T16:09:25.549Z,58.17
2017-12-27T16:11:53.328Z,58.53
2017-12-27T16:14:21.293Z,56.63
2017-12-27T16:16:49.145Z,57.00
2017-12-27T16:19:17.564Z,59.88
2017-12-27T16:21:45.634Z,57.17
2017-12-27T16:24:14.153Z,60.05
2017-12-27T16:26:42.676Z,58.95
2017-12-27T16:29:10.527Z,63.87
2017-12-27T16:31:38.303Z,59.60
2017-12-27T16:34:06.089Z,62.50
2017-12-27T16:36:34.258Z,65.43
2017-12-27T16:39:02.000Z,64.95
2017-12-27T16:41:29.822Z,66.43
2017-12-27T16:43:57.637Z,64.30
2017-12-27T16:46:25.422Z,61.13
2017-12-27T16:48:53.936Z,65.45
2017-12-27T16:51:21.698Z,66.82
2017-12-27T16:53:49.817Z,61.33
2017-12-27T16:56:17.571Z,55.08
2017-12-27T16:58:45.506Z,61.90
2017-12-27T17:01:13.301Z,56.33
2017-12-27T17:03:41.523Z,59.38
2017-12-27T17:06:09.340Z,55.30
2017-12-27T17:08:37.941Z,55.60
2017-12-27T17:11:06.473Z,52.38
2017-12-27T17:13:34.353Z,55.83
2017-12-27T17:16:02.121Z,54.40
2017-12-27T17:18:29.918Z,49.25
2017-12-27T17:20:58.567Z,53.83
2017-12-27T17:23:26.325Z,53.80
2017-12-27T17:25:54.675Z,51.10
2017-12-27T17:28:22.461Z,53.70
2017-12-27T17:30:52.873Z,55.50
2017-12-27T17:33:20.614Z,47.92
2017-12-27T17:35:48.418Z,45.60
2017-12-27T17:38:16.122Z,45.55
2017-12-27T17:40:43.850Z,40.38
2017-12-27T17:43:12.519Z,39.42
2017-12-27T17:45:40.741Z,39.58
2017-12-27T17:48:08.543Z,39.22
2017-12-27T17:50:36.317Z,36.55
2017-12-27T17:53:04.434Z,36.47
2017-12-27T17:55:32.236Z,35.67
2017-12-27T17:58:03.476Z,33.00
2017-12-27T18:00:31.523Z,34.20
2017-12-27T18:02:59.375Z,33.03
2017-12-27T18:05:28.274Z,32.80
2017-12-27T18:07:56.065Z,31.40
2017-12-27T18:10:23.907Z,31.58
2017-12-27T18:12:53.028Z,32.72
2017-12-27T18:15:20.781Z,31.02
2017-12-27T18:17:48.604Z,34.40
2017-12-27T18:20:16.591Z,33.50
2017-12-27T18:22:45.263Z,34.70
2017-12-27T18:25:13.146Z,31.85
2017-12-27T18:27:41.036Z,29.20
2017-12-27T18:30:08.786Z,29.98
2017-12-27T18:32:36.516Z,29.55
2017-12-27T18:35:04.317Z,27.10
2017-12-27T18:37:32.046Z,31.45
2017-12-27T18:39:59.800Z,33.47
2017-12-27T18:42:27.701Z,32.70
2017-12-27T18:44:55.529Z,35.17
2017-12-27T18:47:23.278Z,32.83
2017-12-27T18:49:51.246Z,34.10
2017-12-27T18:52:19.080Z,35.83
2017-12-27T18:54:46.887Z,38.25
2017-12-27T18:57:14.711Z,35.38
2017-12-27T18:59:42.494Z,37.28
2017-12-27T19:02:10.241Z,36.40
2017-12-27T19:04:38.830Z,35.50
2017-12-27T19:07:06.582Z,37.33
2017-12-27T19:09:36.994Z,36.38
2017-12-27T19:12:06.397Z,38.08
2017-12-27T19:14:34.179Z,35.80
2017-12-27T19:17:03.438Z,40.35
2017-12-27T19:19:31.222Z,36.72
2017-12-27T19:21:58.942Z,36.38
2017-12-27T19:24:26.664Z,38.53
2017-12-27T19:26:54.449Z,40.05
2017-12-27T19:29:22.156Z,40.17
2017-12-27T19:31:50.085Z,39.75
2017-12-27T19:34:17.843Z,36.53
2017-12-27T19:36:45.562Z,35.03
2017-12-27T19:39:14.042Z,36.40
2017-12-27T19:41:42.599Z,35.30
2017-12-27T19:44:10.320Z,35.00
2017-12-27T19:46:38.785Z,35.20
2017-12-27T19:49:06.548Z,30.73
2017-12-27T19:51:34.246Z,30.35
2017-12-27T19:54:01.954Z,32.40
2017-12-27T19:56:29.745Z,29.90
2017-12-27T19:58:57.447Z,30.08
2017-12-27T20:01:25.234Z,29.02
2017-12-27T20:03:53.770Z,30.42
2017-12-27T20:06:21.499Z,31.83
2017-12-27T20:08:49.232Z,31.80
2017-12-27T20:11:18.420Z,32.60
2017-12-27T20:13:46.957Z,33.58
2017-12-27T20:16:14.685Z,35.50
2017-12-27T20:18:43.698Z,34.22
2017-12-27T20:21:12.269Z,34.17
2017-12-27T20:23:41.850Z,31.70
2017-12-27T20:26:13.281Z,32.05
2017-12-27T20:28:42.870Z,29.85
2017-12-27T20:31:16.894Z,28.15
2017-12-27T20:33:49.801Z,26.48
2017-12-27T20:36:22.018Z,27.42
2017-12-27T20:38:51.291Z,28.95
2017-12-27T20:41:21.917Z,26.33
2017-12-27T20:43:57.765Z,27.55
2017-12-27T20:46:31.070Z,25.05
2017-12-27T20:49:02.580Z,27.70
2017-12-27T20:54:12.644Z,25.70
2017-12-27T20:56:40.822Z,24.85
2017-12-27T20:59:12.559Z,22.55
2017-12-27T21:01:44.281Z,23.52
2017-12-27T21:04:15.894Z,19.10
2017-12-27T21:06:46.510Z,18.33
2017-12-27T21:09:17.063Z,17.80
2017-12-27T21:11:50.356Z,16.10
2017-12-27T21:14:21.875Z,14.95
2017-12-27T21:16:55.594Z,16.25
2017-12-27T21:19:25.346Z,12.07
2017-12-27T21:21:55.139Z,13.15
2017-12-27T21:24:22.848Z,12.93
2017-12-27T21:26:51.387Z,12.05
2017-12-27T21:29:19.149Z,12.27
2017-12-27T21:31:46.839Z,14.02
2017-12-27T21:34:15.322Z,11.82
2017-12-27T21:36:43.889Z,12.63
2017-12-27T21:39:13.110Z,10.90
2017-12-27T21:41:41.619Z,12.65
2017-12-27T21:44:09.421Z,11.55
2017-12-27T21:46:37.138Z,11.80
2017-12-27T21:49:10.498Z,12.50
2017-12-27T21:51:38.215Z,12.43
2017-12-27T21:54:05.936Z,13.00
2017-12-27T21:56:33.722Z,14.40
2017-12-27T21:59:07.249Z,15.57
2017-12-27T22:01:40.585Z,13.45
2017-12-27T22:04:08.397Z,14.57
2017-12-27T22:06:36.135Z,14.85
2017-12-27T22:09:05.639Z,14.45
2017-12-27T22:11:33.423Z,15.15
2017-12-27T22:14:02.054Z,17.62
2017-12-27T22:16:29.833Z,16.23
2017-12-27T22:18:57.548Z,19.83
2017-12-27T22:21:25.308Z,17.05
2017-12-27T22:23:53.840Z,15.57
2017-12-27T22:26:21.579Z,17.95
2017-12-27T22:28:49.300Z,16.95
2017-12-27T22:31:17.058Z,17.00
2017-12-27T22:33:44.796Z,18.48
2017-12-27T22:36:12.537Z,16.00
2017-12-27T22:38:40.452Z,16.52
2017-12-27T22:41:08.951Z,15.82
2017-12-27T22:43:37.410Z,16.83
2017-12-27T22:46:05.181Z,16.50
2017-12-27T22:48:33.748Z,17.55
2017-12-27T22:51:01.468Z,16.42
2017-12-27T22:53:29.272Z,15.35
2017-12-27T22:55:57.042Z,15.88
2017-12-27T22:58:24.769Z,16.17
2017-12-27T23:00:52.601Z,18.35
2017-12-27T23:03:20.573Z,18.83
2017-12-27T23:05:48.301Z,17.62
2017-12-27T23:08:16.828Z,19.73
2017-12-27T23:10:44.538Z,21.00
2017-12-27T23:13:13.261Z,20.58
2017-12-27T23:15:41.049Z,19.48
2017-12-27T23:18:08.830Z,18.67
2017-12-27T23:20:36.549Z,18.15
2017-12-27T23:23:04.367Z,19.58
2017-12-27T23:25:32.860Z,16.42
2017-12-27T23:28:01.332Z,18.98
2017-12-27T23:30:29.873Z,19.33
2017-12-27T23:32:57.592Z,18.20
2017-12-27T23:35:25.287Z,18.77
2017-12-27T23:37:53.037Z,15.85
2017-12-27T23:40:20.754Z,16.23
2017-12-27T23:42:49.219Z,16.60
2017-12-27T23:45:16.984Z,19.27
2017-12-27T23:47:44.695Z,16.27
2017-12-27T23:50:12.465Z,15.77
2017-12-27T23:52:40.237Z,15.88
2017-12-27T23:55:07.946Z,15.00
2017-12-27T23:57:36.466Z,14.20
